sensor_id;sensor_type;location;lat;lon;timestamp;pressure;altitude;pressure_sealevel;temperature;humidity
38852;BME280;24605;50.092;9.182;2023-05-21T00:02:01;97746.63;;;15.23;100.00
38852;BME280;24605;50.092;9.182;2023-05-21T00:04:28;97723.88;;;15.22;100.00
38852;BME280;24605;50.092;9.182;2023-05-21T00:06:55;97724.88;;;15.20;100.00
38852;BME280;24605;50.092;9.182;2023-05-21T00:09:24;97727.13;;;15.24;100.00
38852;BME280;24605;50.092;9.182;2023-05-21T00:11:50;97738.50;;;15.31;100.00
38852;BME280;24605;50.092;9.182;2023-05-21T00:14:16;97729.72;;;15.30;100.00
38852;BME280;24605;50.092;9.182;2023-05-21T00:16:43;97723.25;;;15.26;100.00
38852;BME280;24605;50.092;9.182;2023-05-21T00:19:11;97711.50;;;15.15;100.00
38852;BME280;24605;50.092;9.182;2023-05-21T00:21:37;97728.13;;;15.29;100.00
38852;BME280;24605;50.092;9.182;2023-05-21T00:24:05;97706.59;;;15.19;100.00
38852;BME280;24605;50.092;9.182;2023-05-21T00:26:32;97722.25;;;15.27;100.00
38852;BME280;24605;50.092;9.182;2023-05-21T00:28:59;97719.38;;;15.29;100.00
38852;BME280;24605;50.092;9.182;2023-05-21T00:31:26;97701.28;;;15.26;100.00
38852;BME280;24605;50.092;9.182;2023-05-21T00:33:52;97714.91;;;15.36;100.00
38852;BME280;24605;50.092;9.182;2023-05-21T00:36:19;97708.81;;;15.35;100.00
38852;BME280;24605;50.092;9.182;2023-05-21T00:38:49;97710.66;;;15.28;100.00
38852;BME280;24605;50.092;9.182;2023-05-21T00:41:16;97706.97;;;15.36;100.00
38852;BME280;24605;50.092;9.182;2023-05-21T00:43:44;97660.88;;;15.18;100.00
38852;BME280;24605;50.092;9.182;2023-05-21T00:46:12;97667.00;;;15.12;100.00
38852;BME280;24605;50.092;9.182;2023-05-21T00:48:40;97681.78;;;15.33;100.00
38852;BME280;24605;50.092;9.182;2023-05-21T00:51:07;97702.72;;;15.42;100.00
38852;BME280;24605;50.092;9.182;2023-05-21T00:53:34;97695.00;;;15.47;100.00
38852;BME280;24605;50.092;9.182;2023-05-21T00:56:01;97693.53;;;15.51;100.00
38852;BME280;24605;50.092;9.182;2023-05-21T00:58:28;97697.63;;;15.40;100.00
38852;BME280;24605;50.092;9.182;2023-05-21T01:00:56;97695.41;;;15.44;100.00
38852;BME280;24605;50.092;9.182;2023-05-21T01:03:27;97676.91;;;15.30;100.00
38852;BME280;24605;50.092;9.182;2023-05-21T01:05:54;97660.09;;;15.11;100.00
38852;BME280;24605;50.092;9.182;2023-05-21T01:08:24;97693.16;;;15.34;100.00
38852;BME280;24605;50.092;9.182;2023-05-21T01:10:52;97688.91;;;15.33;100.00
38852;BME280;24605;50.092;9.182;2023-05-21T01:13:20;97678.75;;;15.37;100.00
38852;BME280;24605;50.092;9.182;2023-05-21T01:15:48;97685.03;;;15.35;100.00
38852;BME280;24605;50.092;9.182;2023-05-21T01:18:16;97681.97;;;15.39;100.00
38852;BME280;24605;50.092;9.182;2023-05-21T01:20:44;97657.63;;;15.16;100.00
38852;BME280;24605;50.092;9.182;2023-05-21T01:23:14;97666.16;;;15.25;100.00
38852;BME280;24605;50.092;9.182;2023-05-21T01:25:41;97675.72;;;15.33;100.00
38852;BME280;24605;50.092;9.182;2023-05-21T01:28:07;97671.44;;;15.32;100.00
38852;BME280;24605;50.092;9.182;2023-05-21T01:30:34;97673.06;;;15.33;100.00
38852;BME280;24605;50.092;9.182;2023-05-21T01:33:03;97661.28;;;15.29;100.00
38852;BME280;24605;50.092;9.182;2023-05-21T01:35:31;97664.31;;;15.32;100.00
38852;BME280;24605;50.092;9.182;2023-05-21T01:38:04;97662.47;;;15.46;100.00
38852;BME280;24605;50.092;9.182;2023-05-21T01:40:38;97663.91;;;15.42;100.00
38852;BME280;24605;50.092;9.182;2023-05-21T01:43:07;97652.28;;;15.43;100.00
38852;BME280;24605;50.092;9.182;2023-05-21T01:45:35;97665.31;;;15.38;100.00
38852;BME280;24605;50.092;9.182;2023-05-21T01:48:04;97657.59;;;15.43;100.00
38852;BME280;24605;50.092;9.182;2023-05-21T01:50:33;97659.44;;;15.36;100.00
38852;BME280;24605;50.092;9.182;2023-05-21T01:53:00;97667.34;;;15.43;100.00
38852;BME280;24605;50.092;9.182;2023-05-21T01:55:28;97658.19;;;15.39;100.00
38852;BME280;24605;50.092;9.182;2023-05-21T01:57:57;97652.72;;;15.40;100.00
38852;BME280;24605;50.092;9.182;2023-05-21T02:00:25;97648.69;;;15.31;100.00
38852;BME280;24605;50.092;9.182;2023-05-21T02:02:53;97639.72;;;15.39;100.00
38852;BME280;24605;50.092;9.182;2023-05-21T02:05:20;97656.78;;;15.43;100.00
38852;BME280;24605;50.092;9.182;2023-05-21T02:07:48;97609.28;;;15.23;100.00
38852;BME280;24605;50.092;9.182;2023-05-21T02:10:15;97637.44;;;15.49;100.00
38852;BME280;24605;50.092;9.182;2023-05-21T02:12:41;97643.94;;;15.53;100.00
38852;BME280;24605;50.092;9.182;2023-05-21T02:15:09;97644.13;;;15.58;100.00
38852;BME280;24605;50.092;9.182;2023-05-21T02:17:38;97655.31;;;15.60;100.00
38852;BME280;24605;50.092;9.182;2023-05-21T02:20:06;97650.25;;;15.59;100.00
38852;BME280;24605;50.092;9.182;2023-05-21T02:22:35;97656.31;;;15.66;100.00
38852;BME280;24605;50.092;9.182;2023-05-21T02:25:02;97626.66;;;15.57;100.00
38852;BME280;24605;50.092;9.182;2023-05-21T02:27:29;97646.34;;;15.68;100.00
38852;BME280;24605;50.092;9.182;2023-05-21T02:29:56;97642.91;;;15.61;100.00
38852;BME280;24605;50.092;9.182;2023-05-21T02:32:24;97639.84;;;15.57;100.00
38852;BME280;24605;50.092;9.182;2023-05-21T02:34:51;97639.22;;;15.69;100.00
38852;BME280;24605;50.092;9.182;2023-05-21T02:37:17;97606.41;;;15.38;100.00
38852;BME280;24605;50.092;9.182;2023-05-21T02:39:44;97650.25;;;15.59;100.00
38852;BME280;24605;50.092;9.182;2023-05-21T02:42:10;97623.22;;;15.50;100.00
38852;BME280;24605;50.092;9.182;2023-05-21T02:44:37;97645.75;;;15.59;100.00
38852;BME280;24605;50.092;9.182;2023-05-21T02:47:04;97639.44;;;15.60;100.00
38852;BME280;24605;50.092;9.182;2023-05-21T02:49:32;97638.59;;;15.66;100.00
38852;BME280;24605;50.092;9.182;2023-05-21T02:52:00;97628.66;;;15.62;100.00
38852;BME280;24605;50.092;9.182;2023-05-21T02:54:27;97606.13;;;15.52;100.00
38852;BME280;24605;50.092;9.182;2023-05-21T02:56:53;97632.09;;;15.69;100.00
38852;BME280;24605;50.092;9.182;2023-05-21T02:59:20;97649.34;;;15.78;100.00
38852;BME280;24605;50.092;9.182;2023-05-21T03:01:46;97655.06;;;15.75;100.00
38852;BME280;24605;50.092;9.182;2023-05-21T03:04:12;97641.63;;;15.84;100.00
38852;BME280;24605;50.092;9.182;2023-05-21T03:06:40;97646.50;;;15.80;100.00
38852;BME280;24605;50.092;9.182;2023-05-21T03:09:07;97604.50;;;15.51;100.00
38852;BME280;24605;50.092;9.182;2023-05-21T03:11:34;97652.81;;;15.86;100.00
38852;BME280;24605;50.092;9.182;2023-05-21T03:14:00;97653.41;;;15.81;100.00
38852;BME280;24605;50.092;9.182;2023-05-21T03:16:26;97606.97;;;15.53;100.00
38852;BME280;24605;50.092;9.182;2023-05-21T03:18:53;97652.41;;;15.82;100.00
38852;BME280;24605;50.092;9.182;2023-05-21T03:21:20;97601.84;;;15.58;100.00
38852;BME280;24605;50.092;9.182;2023-05-21T03:23:48;97639.78;;;15.84;100.00
38852;BME280;24605;50.092;9.182;2023-05-21T03:26:15;97644.66;;;15.80;100.00
38852;BME280;24605;50.092;9.182;2023-05-21T03:28:42;97636.13;;;15.85;100.00
38852;BME280;24605;50.092;9.182;2023-05-21T03:31:08;97639.97;;;15.89;100.00
38852;BME280;24605;50.092;9.182;2023-05-21T03:33:35;97647.31;;;15.87;100.00
38852;BME280;24605;50.092;9.182;2023-05-21T03:36:01;97639.81;;;15.77;100.00
38852;BME280;24605;50.092;9.182;2023-05-21T03:38:27;97643.63;;;15.81;100.00
38852;BME280;24605;50.092;9.182;2023-05-21T03:40:55;97628.19;;;15.85;100.00
38852;BME280;24605;50.092;9.182;2023-05-21T03:43:22;97640.97;;;15.95;100.00
38852;BME280;24605;50.092;9.182;2023-05-21T03:45:48;97644.03;;;15.92;100.00
38852;BME280;24605;50.092;9.182;2023-05-21T03:48:15;97639.38;;;15.87;100.00
38852;BME280;24605;50.092;9.182;2023-05-21T03:50:42;97643.00;;;15.93;100.00
38852;BME280;24605;50.092;9.182;2023-05-21T03:53:08;97643.66;;;15.88;100.00
38852;BME280;24605;50.092;9.182;2023-05-21T03:55:35;97623.75;;;15.72;100.00
38852;BME280;24605;50.092;9.182;2023-05-21T03:58:03;97648.72;;;15.90;100.00
38852;BME280;24605;50.092;9.182;2023-05-21T04:00:29;97645.50;;;15.74;100.00
38852;BME280;24605;50.092;9.182;2023-05-21T04:02:58;97592.13;;;15.52;100.00
38852;BME280;24605;50.092;9.182;2023-05-21T04:05:25;97641.00;;;15.81;100.00
38852;BME280;24605;50.092;9.182;2023-05-21T04:07:51;97626.78;;;15.76;100.00
38852;BME280;24605;50.092;9.182;2023-05-21T04:10:18;97647.91;;;15.82;100.00
38852;BME280;24605;50.092;9.182;2023-05-21T04:12:44;97618.47;;;15.72;100.00
38852;BME280;24605;50.092;9.182;2023-05-21T04:15:14;97631.66;;;15.79;100.00
38852;BME280;24605;50.092;9.182;2023-05-21T04:17:42;97644.63;;;15.94;100.00
38852;BME280;24605;50.092;9.182;2023-05-21T04:20:10;97649.06;;;16.00;100.00
38852;BME280;24605;50.092;9.182;2023-05-21T04:22:37;97643.63;;;15.95;100.00
38852;BME280;24605;50.092;9.182;2023-05-21T04:25:04;97645.63;;;16.00;100.00
38852;BME280;24605;50.092;9.182;2023-05-21T04:27:31;97641.38;;;15.98;100.00
38852;BME280;24605;50.092;9.182;2023-05-21T04:29:58;97638.66;;;16.05;100.00
38852;BME280;24605;50.092;9.182;2023-05-21T04:32:26;97641.47;;;16.17;100.00
38852;BME280;24605;50.092;9.182;2023-05-21T04:34:55;97646.94;;;16.16;100.00
38852;BME280;24605;50.092;9.182;2023-05-21T04:37:21;97643.03;;;16.25;100.00
38852;BME280;24605;50.092;9.182;2023-05-21T04:39:49;97624.50;;;16.25;100.00
38852;BME280;24605;50.092;9.182;2023-05-21T04:42:15;97639.22;;;16.46;100.00
38852;BME280;24605;50.092;9.182;2023-05-21T04:44:43;97597.53;;;16.16;100.00
38852;BME280;24605;50.092;9.182;2023-05-21T04:47:10;97624.47;;;16.32;100.00
38852;BME280;24605;50.092;9.182;2023-05-21T04:49:40;97638.81;;;16.49;100.00
38852;BME280;24605;50.092;9.182;2023-05-21T04:52:06;97639.41;;;16.51;100.00
38852;BME280;24605;50.092;9.182;2023-05-21T04:54:33;97638.22;;;16.47;100.00
38852;BME280;24605;50.092;9.182;2023-05-21T04:57:00;97639.94;;;16.60;100.00
38852;BME280;24605;50.092;9.182;2023-05-21T04:59:27;97641.16;;;16.64;100.00
38852;BME280;24605;50.092;9.182;2023-05-21T05:01:53;97647.34;;;16.76;100.00
38852;BME280;24605;50.092;9.182;2023-05-21T05:04:20;97648.19;;;16.77;100.00
38852;BME280;24605;50.092;9.182;2023-05-21T05:06:48;97630.34;;;16.66;100.00
38852;BME280;24605;50.092;9.182;2023-05-21T05:09:14;97630.81;;;16.81;100.00
38852;BME280;24605;50.092;9.182;2023-05-21T05:11:41;97648.66;;;17.18;100.00
38852;BME280;24605;50.092;9.182;2023-05-21T05:14:07;97647.50;;;17.32;100.00
38852;BME280;24605;50.092;9.182;2023-05-21T05:16:34;97644.97;;;17.37;99.58
38852;BME280;24605;50.092;9.182;2023-05-21T05:19:01;97645.88;;;17.50;99.09
38852;BME280;24605;50.092;9.182;2023-05-21T05:21:27;97646.09;;;17.48;98.02
38852;BME280;24605;50.092;9.182;2023-05-21T05:23:55;97649.78;;;17.84;96.34
38852;BME280;24605;50.092;9.182;2023-05-21T05:26:21;97652.78;;;18.07;93.46
38852;BME280;24605;50.092;9.182;2023-05-21T05:28:48;97646.91;;;18.16;93.40
38852;BME280;24605;50.092;9.182;2023-05-21T05:31:14;97653.28;;;18.27;91.74
38852;BME280;24605;50.092;9.182;2023-05-21T05:33:41;97645.84;;;18.48;91.61
38852;BME280;24605;50.092;9.182;2023-05-21T05:36:07;97655.81;;;18.53;89.80
38852;BME280;24605;50.092;9.182;2023-05-21T05:38:35;97656.25;;;18.50;90.36
38852;BME280;24605;50.092;9.182;2023-05-21T05:41:03;97660.94;;;18.90;88.69
38852;BME280;24605;50.092;9.182;2023-05-21T05:43:29;97651.72;;;19.16;87.41
38852;BME280;24605;50.092;9.182;2023-05-21T05:45:55;97650.34;;;19.14;86.60
38852;BME280;24605;50.092;9.182;2023-05-21T05:48:22;97621.09;;;18.90;85.98
38852;BME280;24605;50.092;9.182;2023-05-21T05:50:48;97653.78;;;19.14;86.20
38852;BME280;24605;50.092;9.182;2023-05-21T05:53:18;97661.41;;;19.46;84.29
38852;BME280;24605;50.092;9.182;2023-05-21T05:55:45;97653.28;;;19.53;84.13
38852;BME280;24605;50.092;9.182;2023-05-21T05:58:12;97651.00;;;19.45;83.68
38852;BME280;24605;50.092;9.182;2023-05-21T06:00:39;97652.66;;;19.86;82.54
38852;BME280;24605;50.092;9.182;2023-05-21T06:03:06;97656.44;;;20.02;81.02
38852;BME280;24605;50.092;9.182;2023-05-21T06:05:32;97641.25;;;20.03;80.45
38852;BME280;24605;50.092;9.182;2023-05-21T06:07:59;97657.69;;;20.29;80.23
38852;BME280;24605;50.092;9.182;2023-05-21T06:10:25;97657.03;;;20.50;78.78
38852;BME280;24605;50.092;9.182;2023-05-21T06:12:52;97637.94;;;20.42;78.34
38852;BME280;24605;50.092;9.182;2023-05-21T06:15:19;97658.94;;;20.38;78.16
38852;BME280;24605;50.092;9.182;2023-05-21T06:17:46;97654.44;;;20.39;78.46
38852;BME280;24605;50.092;9.182;2023-05-21T06:20:12;97657.09;;;20.56;78.19
38852;BME280;24605;50.092;9.182;2023-05-21T06:22:39;97662.16;;;20.11;78.68
38852;BME280;24605;50.092;9.182;2023-05-21T06:25:06;97656.19;;;20.50;78.03
38852;BME280;24605;50.092;9.182;2023-05-21T06:27:34;97655.19;;;20.68;77.08
38852;BME280;24605;50.092;9.182;2023-05-21T06:30:01;97664.97;;;20.96;75.86
38852;BME280;24605;50.092;9.182;2023-05-21T06:32:29;97661.81;;;20.65;77.41
38852;BME280;24605;50.092;9.182;2023-05-21T06:34:55;97659.94;;;21.00;74.89
38852;BME280;24605;50.092;9.182;2023-05-21T06:37:22;97656.66;;;20.30;77.55
38852;BME280;24605;50.092;9.182;2023-05-21T06:39:48;97656.75;;;20.81;76.02
38852;BME280;24605;50.092;9.182;2023-05-21T06:42:15;97657.78;;;20.97;75.41
38852;BME280;24605;50.092;9.182;2023-05-21T06:44:41;97662.34;;;21.19;74.87
38852;BME280;24605;50.092;9.182;2023-05-21T06:47:07;97665.19;;;21.12;74.70
38852;BME280;24605;50.092;9.182;2023-05-21T06:49:35;97618.53;;;20.92;72.60
38852;BME280;24605;50.092;9.182;2023-05-21T06:52:02;97671.41;;;21.18;73.30
38852;BME280;24605;50.092;9.182;2023-05-21T06:54:29;97657.84;;;20.85;72.73
38852;BME280;24605;50.092;9.182;2023-05-21T06:56:55;97663.44;;;21.01;72.88
38852;BME280;24605;50.092;9.182;2023-05-21T06:59:22;97669.78;;;21.17;74.52
38852;BME280;24605;50.092;9.182;2023-05-21T07:01:48;97625.13;;;21.24;72.78
38852;BME280;24605;50.092;9.182;2023-05-21T07:04:15;97663.50;;;21.62;71.20
38852;BME280;24605;50.092;9.182;2023-05-21T07:06:42;97662.88;;;21.38;70.46
38852;BME280;24605;50.092;9.182;2023-05-21T07:09:09;97665.81;;;21.75;70.18
38852;BME280;24605;50.092;9.182;2023-05-21T07:11:36;97648.75;;;21.37;69.43
38852;BME280;24605;50.092;9.182;2023-05-21T07:14:03;97668.13;;;21.50;70.04
38852;BME280;24605;50.092;9.182;2023-05-21T07:16:29;97635.72;;;21.58;70.11
38852;BME280;24605;50.092;9.182;2023-05-21T07:18:56;97669.69;;;21.68;70.16
38852;BME280;24605;50.092;9.182;2023-05-21T07:21:23;97669.34;;;21.81;67.38
38852;BME280;24605;50.092;9.182;2023-05-21T07:23:51;97674.25;;;22.17;68.21
38852;BME280;24605;50.092;9.182;2023-05-21T07:26:17;97674.81;;;22.19;66.16
38852;BME280;24605;50.092;9.182;2023-05-21T07:28:44;97675.88;;;22.40;66.28
38852;BME280;24605;50.092;9.182;2023-05-21T07:31:10;97666.97;;;22.34;64.98
38852;BME280;24605;50.092;9.182;2023-05-21T07:33:37;97668.94;;;22.17;65.26
38852;BME280;24605;50.092;9.182;2023-05-21T07:36:04;97675.53;;;22.36;64.78
38852;BME280;24605;50.092;9.182;2023-05-21T07:38:31;97639.44;;;22.06;65.06
38852;BME280;24605;50.092;9.182;2023-05-21T07:41:02;97670.69;;;22.06;66.23
38852;BME280;24605;50.092;9.182;2023-05-21T07:43:32;97661.75;;;21.95;65.08
38852;BME280;24605;50.092;9.182;2023-05-21T07:45:58;97666.00;;;21.52;65.75
38852;BME280;24605;50.092;9.182;2023-05-21T07:48:25;97661.97;;;21.66;65.49
38852;BME280;24605;50.092;9.182;2023-05-21T07:50:52;97666.50;;;22.15;64.00
38852;BME280;24605;50.092;9.182;2023-05-21T07:53:18;97664.59;;;22.11;64.48
38852;BME280;24605;50.092;9.182;2023-05-21T07:55:45;97664.47;;;22.00;64.51
38852;BME280;24605;50.092;9.182;2023-05-21T07:58:14;97634.00;;;21.96;65.82
38852;BME280;24605;50.092;9.182;2023-05-21T08:00:42;97660.34;;;21.65;66.83
38852;BME280;24605;50.092;9.182;2023-05-21T08:03:09;97671.53;;;21.45;69.21
38852;BME280;24605;50.092;9.182;2023-05-21T08:05:36;97663.78;;;21.88;66.95
38852;BME280;24605;50.092;9.182;2023-05-21T08:08:02;97665.53;;;21.77;64.57
38852;BME280;24605;50.092;9.182;2023-05-21T08:10:29;97663.78;;;21.88;66.69
38852;BME280;24605;50.092;9.182;2023-05-21T08:12:56;97661.50;;;22.46;64.20
38852;BME280;24605;50.092;9.182;2023-05-21T08:15:24;97662.41;;;22.35;61.74
38852;BME280;24605;50.092;9.182;2023-05-21T08:17:50;97666.63;;;22.26;62.47
38852;BME280;24605;50.092;9.182;2023-05-21T08:20:17;97662.84;;;22.49;61.89
38852;BME280;24605;50.092;9.182;2023-05-21T08:22:44;97663.13;;;22.52;60.21
38852;BME280;24605;50.092;9.182;2023-05-21T08:25:11;97670.91;;;22.54;60.78
38852;BME280;24605;50.092;9.182;2023-05-21T08:27:37;97670.75;;;22.38;61.23
38852;BME280;24605;50.092;9.182;2023-05-21T08:30:05;97664.41;;;22.45;60.57
38852;BME280;24605;50.092;9.182;2023-05-21T08:32:33;97666.44;;;22.60;60.75
38852;BME280;24605;50.092;9.182;2023-05-21T08:34:59;97663.31;;;22.41;61.70
38852;BME280;24605;50.092;9.182;2023-05-21T08:37:25;97663.19;;;22.90;60.36
38852;BME280;24605;50.092;9.182;2023-05-21T08:39:52;97670.56;;;23.10;59.42
38852;BME280;24605;50.092;9.182;2023-05-21T08:42:23;97668.16;;;23.14;60.22
38852;BME280;24605;50.092;9.182;2023-05-21T08:44:54;97666.28;;;23.14;60.49
38852;BME280;24605;50.092;9.182;2023-05-21T08:47:25;97655.00;;;23.02;58.74
38852;BME280;24605;50.092;9.182;2023-05-21T08:49:53;97671.72;;;23.20;59.28
38852;BME280;24605;50.092;9.182;2023-05-21T08:52:20;97669.69;;;23.42;57.48
38852;BME280;24605;50.092;9.182;2023-05-21T08:54:47;97658.94;;;23.32;58.41
38852;BME280;24605;50.092;9.182;2023-05-21T08:57:16;97665.47;;;23.09;58.59
38852;BME280;24605;50.092;9.182;2023-05-21T08:59:44;97663.94;;;23.18;57.79
38852;BME280;24605;50.092;9.182;2023-05-21T09:02:11;97664.69;;;23.56;58.42
38852;BME280;24605;50.092;9.182;2023-05-21T09:04:40;97662.53;;;23.15;59.49
38852;BME280;24605;50.092;9.182;2023-05-21T09:07:08;97662.09;;;23.24;58.13
38852;BME280;24605;50.092;9.182;2023-05-21T09:09:46;97648.00;;;23.39;59.56
38852;BME280;24605;50.092;9.182;2023-05-21T09:12:14;97660.19;;;22.81;61.51
38852;BME280;24605;50.092;9.182;2023-05-21T09:14:41;97656.22;;;23.27;59.65
38852;BME280;24605;50.092;9.182;2023-05-21T09:17:08;97661.41;;;23.44;58.10
38852;BME280;24605;50.092;9.182;2023-05-21T09:19:38;97666.78;;;23.44;56.49
38852;BME280;24605;50.092;9.182;2023-05-21T09:22:04;97664.59;;;23.41;56.64
38852;BME280;24605;50.092;9.182;2023-05-21T09:24:32;97658.81;;;23.59;55.92
38852;BME280;24605;50.092;9.182;2023-05-21T09:26:59;97658.75;;;23.49;57.42
38852;BME280;24605;50.092;9.182;2023-05-21T09:29:26;97657.75;;;23.66;56.59
38852;BME280;24605;50.092;9.182;2023-05-21T09:31:52;97667.59;;;24.13;54.29
38852;BME280;24605;50.092;9.182;2023-05-21T09:34:19;97653.66;;;24.11;55.89
38852;BME280;24605;50.092;9.182;2023-05-21T09:36:47;97659.81;;;24.06;55.29
38852;BME280;24605;50.092;9.182;2023-05-21T09:39:26;97663.22;;;23.33;57.84
38852;BME280;24605;50.092;9.182;2023-05-21T09:41:56;97659.97;;;23.89;54.96
38852;BME280;24605;50.092;9.182;2023-05-21T09:44:23;97655.97;;;23.87;54.97
38852;BME280;24605;50.092;9.182;2023-05-21T09:46:49;97648.16;;;23.70;55.71
38852;BME280;24605;50.092;9.182;2023-05-21T09:49:25;97649.59;;;23.35;56.59
38852;BME280;24605;50.092;9.182;2023-05-21T09:51:54;97655.91;;;23.71;54.97
38852;BME280;24605;50.092;9.182;2023-05-21T09:54:21;97654.34;;;23.27;55.54
38852;BME280;24605;50.092;9.182;2023-05-21T09:56:47;97648.75;;;23.92;54.50
38852;BME280;24605;50.092;9.182;2023-05-21T09:59:16;97655.88;;;24.50;52.31
38852;BME280;24605;50.092;9.182;2023-05-21T10:01:42;97657.22;;;24.68;51.29
38852;BME280;24605;50.092;9.182;2023-05-21T10:04:10;97654.28;;;24.80;51.01
38852;BME280;24605;50.092;9.182;2023-05-21T10:06:41;97657.50;;;24.82;49.73
38852;BME280;24605;50.092;9.182;2023-05-21T10:09:09;97644.34;;;24.91;50.53
38852;BME280;24605;50.092;9.182;2023-05-21T10:11:37;97644.06;;;24.31;51.86
38852;BME280;24605;50.092;9.182;2023-05-21T10:14:06;97646.19;;;25.16;51.02
38852;BME280;24605;50.092;9.182;2023-05-21T10:16:36;97643.94;;;25.65;49.50
38852;BME280;24605;50.092;9.182;2023-05-21T10:19:02;97653.19;;;25.88;45.06
38852;BME280;24605;50.092;9.182;2023-05-21T10:21:31;97647.50;;;25.40;47.13
38852;BME280;24605;50.092;9.182;2023-05-21T10:24:01;97642.09;;;25.34;47.93
38852;BME280;24605;50.092;9.182;2023-05-21T10:26:29;97642.38;;;25.43;47.46
38852;BME280;24605;50.092;9.182;2023-05-21T10:28:56;97631.00;;;25.72;47.64
38852;BME280;24605;50.092;9.182;2023-05-21T10:31:24;97622.47;;;25.60;47.98
38852;BME280;24605;50.092;9.182;2023-05-21T10:33:53;97640.50;;;25.44;48.36
38852;BME280;24605;50.092;9.182;2023-05-21T10:36:20;97636.88;;;25.79;48.54
38852;BME280;24605;50.092;9.182;2023-05-21T10:38:47;97632.63;;;25.73;48.18
38852;BME280;24605;50.092;9.182;2023-05-21T10:41:14;97632.53;;;25.84;46.38
38852;BME280;24605;50.092;9.182;2023-05-21T10:43:48;97628.66;;;26.16;46.99
38852;BME280;24605;50.092;9.182;2023-05-21T10:46:36;97626.41;;;26.28;44.26
38852;BME280;24605;50.092;9.182;2023-05-21T10:49:37;97625.91;;;26.26;46.03
38852;BME280;24605;50.092;9.182;2023-05-21T10:52:19;97626.97;;;26.25;46.39
38852;BME280;24605;50.092;9.182;2023-05-21T10:54:56;97628.31;;;25.67;44.82
38852;BME280;24605;50.092;9.182;2023-05-21T10:57:40;97608.59;;;25.22;47.65
38852;BME280;24605;50.092;9.182;2023-05-21T11:00:12;97624.25;;;25.80;46.23
38852;BME280;24605;50.092;9.182;2023-05-21T11:02:41;97625.44;;;26.14;47.29
38852;BME280;24605;50.092;9.182;2023-05-21T11:05:11;97629.91;;;26.28;46.85
38852;BME280;24605;50.092;9.182;2023-05-21T11:07:50;97618.03;;;26.35;46.31
38852;BME280;24605;50.092;9.182;2023-05-21T11:10:28;97618.38;;;26.23;43.87
38852;BME280;24605;50.092;9.182;2023-05-21T11:13:06;97613.28;;;26.56;43.68
38852;BME280;24605;50.092;9.182;2023-05-21T11:16:01;97624.66;;;26.48;41.60
38852;BME280;24605;50.092;9.182;2023-05-21T11:19:00;97630.59;;;26.79;43.51
38852;BME280;24605;50.092;9.182;2023-05-21T11:21:33;97619.47;;;26.56;43.10
38852;BME280;24605;50.092;9.182;2023-05-21T11:24:01;97620.16;;;26.38;43.46
38852;BME280;24605;50.092;9.182;2023-05-21T11:26:58;97614.53;;;26.34;44.18
38852;BME280;24605;50.092;9.182;2023-05-21T11:29:17;97620.53;;;26.21;43.79
38852;BME280;24605;50.092;9.182;2023-05-21T11:31:45;97616.81;;;26.17;43.86
38852;BME280;24605;50.092;9.182;2023-05-21T11:34:11;97622.53;;;26.45;43.86
38852;BME280;24605;50.092;9.182;2023-05-21T11:36:40;97596.91;;;26.52;44.31
38852;BME280;24605;50.092;9.182;2023-05-21T11:39:07;97616.75;;;26.62;44.75
38852;BME280;24605;50.092;9.182;2023-05-21T11:41:49;97614.75;;;25.98;43.68
38852;BME280;24605;50.092;9.182;2023-05-21T11:44:16;97616.84;;;26.11;44.41
38852;BME280;24605;50.092;9.182;2023-05-21T11:46:42;97614.19;;;26.75;43.46
38852;BME280;24605;50.092;9.182;2023-05-21T11:49:11;97612.56;;;27.09;42.95
38852;BME280;24605;50.092;9.182;2023-05-21T11:51:40;97616.88;;;26.75;42.13
38852;BME280;24605;50.092;9.182;2023-05-21T11:54:09;97609.47;;;27.21;43.00
38852;BME280;24605;50.092;9.182;2023-05-21T11:56:37;97600.94;;;27.14;42.54
38852;BME280;24605;50.092;9.182;2023-05-21T11:59:12;97618.22;;;27.08;42.56
38852;BME280;24605;50.092;9.182;2023-05-21T12:01:41;97611.53;;;27.29;43.36
38852;BME280;24605;50.092;9.182;2023-05-21T12:04:07;97561.72;;;26.83;43.74
38852;BME280;24605;50.092;9.182;2023-05-21T12:06:35;97620.41;;;27.54;41.48
38852;BME280;24605;50.092;9.182;2023-05-21T12:09:03;97613.53;;;27.86;40.21
38852;BME280;24605;50.092;9.182;2023-05-21T12:11:30;97614.88;;;27.45;40.73
38852;BME280;24605;50.092;9.182;2023-05-21T12:13:56;97615.69;;;26.92;41.45
38852;BME280;24605;50.092;9.182;2023-05-21T12:16:23;97625.28;;;27.52;39.77
38852;BME280;24605;50.092;9.182;2023-05-21T12:18:51;97616.81;;;27.40;40.46
38852;BME280;24605;50.092;9.182;2023-05-21T12:21:17;97614.66;;;28.04;39.55
38852;BME280;24605;50.092;9.182;2023-05-21T12:23:44;97622.31;;;28.68;38.78
38852;BME280;24605;50.092;9.182;2023-05-21T12:26:11;97620.25;;;28.46;39.30
38852;BME280;24605;50.092;9.182;2023-05-21T12:28:39;97619.53;;;28.02;39.06
38852;BME280;24605;50.092;9.182;2023-05-21T12:31:05;97622.69;;;27.66;40.05
38852;BME280;24605;50.092;9.182;2023-05-21T12:33:33;97620.25;;;27.89;39.50
38852;BME280;24605;50.092;9.182;2023-05-21T12:35:59;97610.84;;;28.43;37.86
38852;BME280;24605;50.092;9.182;2023-05-21T12:38:29;97632.97;;;28.59;38.08
38852;BME280;24605;50.092;9.182;2023-05-21T12:41:02;97630.50;;;28.11;37.97
38852;BME280;24605;50.092;9.182;2023-05-21T12:43:31;97621.13;;;28.03;39.01
38852;BME280;24605;50.092;9.182;2023-05-21T12:45:58;97622.66;;;27.47;39.38
38852;BME280;24605;50.092;9.182;2023-05-21T12:48:24;97619.41;;;27.50;38.74
38852;BME280;24605;50.092;9.182;2023-05-21T12:50:51;97625.38;;;27.42;39.71
38852;BME280;24605;50.092;9.182;2023-05-21T12:53:17;97617.34;;;26.88;39.99
38852;BME280;24605;50.092;9.182;2023-05-21T12:55:43;97629.56;;;27.29;40.09
38852;BME280;24605;50.092;9.182;2023-05-21T12:58:12;97621.75;;;27.32;40.49
38852;BME280;24605;50.092;9.182;2023-05-21T13:00:41;97626.38;;;27.94;39.92